sensor_id;sensor_type;location;lat;lon;timestamp;pressure;altitude;pressure_sealevel;temperature;humidity
52719;BME280;38616;42.140;24.760;2023-04-09T00:01:10;99977.00;;;10.67;63.31
52719;BME280;38616;42.140;24.760;2023-04-09T00:03:36;99972.94;;;10.75;62.69
52719;BME280;38616;42.140;24.760;2023-04-09T00:06:02;99972.66;;;10.76;62.42
52719;BME280;38616;42.140;24.760;2023-04-09T00:08:30;99978.09;;;10.76;62.68
52719;BME280;38616;42.140;24.760;2023-04-09T00:10:56;99977.28;;;10.81;61.95
52719;BME280;38616;42.140;24.760;2023-04-09T00:13:22;99983.78;;;10.54;62.86
52719;BME280;38616;42.140;24.760;2023-04-09T00:15:50;99986.25;;;10.56;63.04
52719;BME280;38616;42.140;24.760;2023-04-09T00:18:15;99986.25;;;10.45;62.82
52719;BME280;38616;42.140;24.760;2023-04-09T00:20:42;99987.34;;;10.49;63.22
52719;BME280;38616;42.140;24.760;2023-04-09T00:23:08;99989.50;;;10.63;62.59
52719;BME280;38616;42.140;24.760;2023-04-09T00:25:33;99990.06;;;10.55;62.61
52719;BME280;38616;42.140;24.760;2023-04-09T00:27:59;99997.13;;;10.51;62.90
52719;BME280;38616;42.140;24.760;2023-04-09T00:30:27;99988.13;;;10.40;63.42
52719;BME280;38616;42.140;24.760;2023-04-09T00:32:52;99981.91;;;10.44;62.60
52719;BME280;38616;42.140;24.760;2023-04-09T00:35:18;99991.88;;;10.33;62.82
52719;BME280;38616;42.140;24.760;2023-04-09T00:37:43;99994.09;;;10.42;63.03
52719;BME280;38616;42.140;24.760;2023-04-09T00:40:09;99998.19;;;10.44;62.47
52719;BME280;38616;42.140;24.760;2023-04-09T00:42:36;100003.88;;;10.43;63.00
52719;BME280;38616;42.140;24.760;2023-04-09T00:45:05;100008.72;;;10.35;62.96
52719;BME280;38616;42.140;24.760;2023-04-09T00:47:31;100011.19;;;10.37;63.03
52719;BME280;38616;42.140;24.760;2023-04-09T00:49:59;100005.16;;;10.14;63.60
52719;BME280;38616;42.140;24.760;2023-04-09T00:52:25;100009.47;;;10.05;64.08
52719;BME280;38616;42.140;24.760;2023-04-09T00:54:51;100015.50;;;10.28;63.70
52719;BME280;38616;42.140;24.760;2023-04-09T00:57:17;100006.28;;;10.34;62.95
52719;BME280;38616;42.140;24.760;2023-04-09T00:59:43;100013.03;;;10.26;63.49
52719;BME280;38616;42.140;24.760;2023-04-09T01:02:09;100005.41;;;10.18;63.28
52719;BME280;38616;42.140;24.760;2023-04-09T01:04:36;100009.44;;;10.00;64.26
52719;BME280;38616;42.140;24.760;2023-04-09T01:10:10;100008.41;;;10.11;63.95
52719;BME280;38616;42.140;24.760;2023-04-09T01:13:03;100014.88;;;10.00;64.11
52719;BME280;38616;42.140;24.760;2023-04-09T01:15:30;100010.22;;;9.90;64.63
52719;BME280;38616;42.140;24.760;2023-04-09T01:20:42;100002.94;;;10.01;64.47
52719;BME280;38616;42.140;24.760;2023-04-09T01:23:53;100002.38;;;9.94;64.09
52719;BME280;38616;42.140;24.760;2023-04-09T01:29:06;100008.88;;;9.93;64.69
52719;BME280;38616;42.140;24.760;2023-04-09T01:31:35;100005.88;;;9.84;64.71
52719;BME280;38616;42.140;24.760;2023-04-09T01:34:02;100012.63;;;9.81;64.84
52719;BME280;38616;42.140;24.760;2023-04-09T01:36:29;100012.66;;;9.91;64.55
52719;BME280;38616;42.140;24.760;2023-04-09T01:38:56;100004.56;;;10.02;63.95
52719;BME280;38616;42.140;24.760;2023-04-09T01:41:22;100006.66;;;9.84;64.55
52719;BME280;38616;42.140;24.760;2023-04-09T01:43:50;100006.06;;;9.67;65.25
52719;BME280;38616;42.140;24.760;2023-04-09T01:46:17;100014.75;;;9.69;64.93
52719;BME280;38616;42.140;24.760;2023-04-09T01:48:43;100015.53;;;9.64;65.00
52719;BME280;38616;42.140;24.760;2023-04-09T01:51:11;100023.34;;;9.50;65.53
52719;BME280;38616;42.140;24.760;2023-04-09T01:53:38;100013.09;;;9.63;64.87
52719;BME280;38616;42.140;24.760;2023-04-09T01:56:05;100024.19;;;9.61;65.11
52719;BME280;38616;42.140;24.760;2023-04-09T01:58:30;100015.75;;;9.52;65.06
52719;BME280;38616;42.140;24.760;2023-04-09T02:03:34;100020.09;;;9.53;65.98
52719;BME280;38616;42.140;24.760;2023-04-09T02:06:22;100018.25;;;9.64;65.72
52719;BME280;38616;42.140;24.760;2023-04-09T02:08:51;100019.09;;;9.65;65.33
52719;BME280;38616;42.140;24.760;2023-04-09T02:11:17;100020.72;;;9.66;65.42
52719;BME280;38616;42.140;24.760;2023-04-09T02:13:48;100019.09;;;9.75;64.93
52719;BME280;38616;42.140;24.760;2023-04-09T02:16:14;100024.97;;;9.51;65.44
52719;BME280;38616;42.140;24.760;2023-04-09T02:18:41;100025.59;;;9.64;64.50
52719;BME280;38616;42.140;24.760;2023-04-09T02:21:06;100022.31;;;9.61;65.57
52719;BME280;38616;42.140;24.760;2023-04-09T02:23:31;100028.75;;;9.45;65.14
52719;BME280;38616;42.140;24.760;2023-04-09T02:25:58;100031.09;;;9.36;65.74
52719;BME280;38616;42.140;24.760;2023-04-09T02:28:23;100031.41;;;9.40;65.71
52719;BME280;38616;42.140;24.760;2023-04-09T02:30:49;100030.66;;;9.50;65.16
52719;BME280;38616;42.140;24.760;2023-04-09T02:33:14;100028.78;;;9.55;65.02
52719;BME280;38616;42.140;24.760;2023-04-09T02:35:40;100023.94;;;9.57;64.85
52719;BME280;38616;42.140;24.760;2023-04-09T02:38:05;100030.47;;;9.61;65.35
52719;BME280;38616;42.140;24.760;2023-04-09T02:40:32;100030.47;;;9.61;65.01
52719;BME280;38616;42.140;24.760;2023-04-09T02:42:57;100033.34;;;9.50;65.51
52719;BME280;38616;42.140;24.760;2023-04-09T02:45:23;100028.81;;;9.60;64.96
52719;BME280;38616;42.140;24.760;2023-04-09T02:47:49;100028.41;;;9.36;65.73
52719;BME280;38616;42.140;24.760;2023-04-09T02:50:14;100035.72;;;9.36;65.59
52719;BME280;38616;42.140;24.760;2023-04-09T02:52:39;100038.47;;;9.41;65.87
52719;BME280;38616;42.140;24.760;2023-04-09T02:55:05;100043.72;;;9.15;66.54
52719;BME280;38616;42.140;24.760;2023-04-09T02:57:33;100034.13;;;9.40;66.47
52719;BME280;38616;42.140;24.760;2023-04-09T02:59:58;100036.47;;;9.26;66.43
52719;BME280;38616;42.140;24.760;2023-04-09T03:02:28;100039.72;;;9.23;66.24
52719;BME280;38616;42.140;24.760;2023-04-09T03:04:54;100036.88;;;9.07;66.16
52719;BME280;38616;42.140;24.760;2023-04-09T03:07:20;100036.66;;;9.14;66.71
52719;BME280;38616;42.140;24.760;2023-04-09T03:09:46;100044.22;;;9.12;66.90
52719;BME280;38616;42.140;24.760;2023-04-09T03:12:11;100037.53;;;8.87;67.51
52719;BME280;38616;42.140;24.760;2023-04-09T03:14:37;100034.91;;;8.97;67.15
52719;BME280;38616;42.140;24.760;2023-04-09T03:17:02;100023.94;;;9.14;67.08
52719;BME280;38616;42.140;24.760;2023-04-09T03:19:30;100022.34;;;9.19;67.09
52719;BME280;38616;42.140;24.760;2023-04-09T03:21:55;100026.97;;;9.23;66.22
52719;BME280;38616;42.140;24.760;2023-04-09T03:24:20;100029.03;;;9.11;66.97
52719;BME280;38616;42.140;24.760;2023-04-09T03:26:46;100021.66;;;9.01;66.96
52719;BME280;38616;42.140;24.760;2023-04-09T03:29:11;100030.16;;;9.15;66.55
52719;BME280;38616;42.140;24.760;2023-04-09T03:31:37;100027.47;;;9.20;66.80
52719;BME280;38616;42.140;24.760;2023-04-09T03:34:02;100031.75;;;9.11;66.61
52719;BME280;38616;42.140;24.760;2023-04-09T03:36:27;100031.59;;;9.23;66.57
52719;BME280;38616;42.140;24.760;2023-04-09T03:38:53;100034.06;;;9.29;66.05
52719;BME280;38616;42.140;24.760;2023-04-09T03:41:18;100039.19;;;9.31;66.13
52719;BME280;38616;42.140;24.760;2023-04-09T03:43:43;100045.97;;;9.28;65.96
52719;BME280;38616;42.140;24.760;2023-04-09T03:46:15;100039.44;;;9.24;66.13
52719;BME280;38616;42.140;24.760;2023-04-09T03:48:41;100047.47;;;9.09;66.81
52719;BME280;38616;42.140;24.760;2023-04-09T03:51:13;100051.25;;;9.08;66.93
52719;BME280;38616;42.140;24.760;2023-04-09T03:53:39;100051.72;;;8.99;66.69
52719;BME280;38616;42.140;24.760;2023-04-09T03:56:05;100053.44;;;9.11;66.87
52719;BME280;38616;42.140;24.760;2023-04-09T03:58:31;100048.44;;;8.97;67.24
52719;BME280;38616;42.140;24.760;2023-04-09T04:00:56;100049.97;;;9.15;66.76
52719;BME280;38616;42.140;24.760;2023-04-09T04:03:21;100052.59;;;9.05;66.49
52719;BME280;38616;42.140;24.760;2023-04-09T04:05:47;100065.22;;;8.94;67.08
52719;BME280;38616;42.140;24.760;2023-04-09T04:08:12;100060.41;;;9.01;66.53
52719;BME280;38616;42.140;24.760;2023-04-09T04:10:37;100061.81;;;9.04;66.88
52719;BME280;38616;42.140;24.760;2023-04-09T04:13:05;100062.88;;;9.03;66.93
52719;BME280;38616;42.140;24.760;2023-04-09T04:15:31;100058.34;;;9.14;66.65
52719;BME280;38616;42.140;24.760;2023-04-09T04:17:56;100056.16;;;9.11;66.24
52719;BME280;38616;42.140;24.760;2023-04-09T04:20:21;100057.09;;;8.94;67.24
52719;BME280;38616;42.140;24.760;2023-04-09T04:22:47;100065.22;;;8.94;67.13
52719;BME280;38616;42.140;24.760;2023-04-09T04:25:12;100069.09;;;9.04;67.01
52719;BME280;38616;42.140;24.760;2023-04-09T04:27:41;100066.94;;;8.73;67.54
52719;BME280;38616;42.140;24.760;2023-04-09T04:30:07;100067.13;;;8.94;67.46
52719;BME280;38616;42.140;24.760;2023-04-09T04:32:33;100065.16;;;9.16;67.04
52719;BME280;38616;42.140;24.760;2023-04-09T04:34:58;100073.59;;;9.25;66.49
52719;BME280;38616;42.140;24.760;2023-04-09T04:37:24;100074.13;;;8.90;66.96
52719;BME280;38616;42.140;24.760;2023-04-09T04:39:49;100072.03;;;8.97;67.24
52719;BME280;38616;42.140;24.760;2023-04-09T04:42:15;100071.81;;;9.04;66.93
52719;BME280;38616;42.140;24.760;2023-04-09T04:44:40;100077.28;;;9.09;66.99
52719;BME280;38616;42.140;24.760;2023-04-09T04:47:06;100069.03;;;9.31;66.59
52719;BME280;38616;42.140;24.760;2023-04-09T04:49:31;100075.28;;;9.31;66.06
52719;BME280;38616;42.140;24.760;2023-04-09T04:51:57;100069.59;;;9.33;65.80
52719;BME280;38616;42.140;24.760;2023-04-09T04:54:22;100071.59;;;9.10;67.00
52719;BME280;38616;42.140;24.760;2023-04-09T04:56:47;100081.13;;;9.18;66.53
52719;BME280;38616;42.140;24.760;2023-04-09T04:59:13;100076.94;;;9.38;66.06
52719;BME280;38616;42.140;24.760;2023-04-09T05:01:38;100068.31;;;9.41;65.86
52719;BME280;38616;42.140;24.760;2023-04-09T05:04:05;100079.59;;;8.95;66.65
52719;BME280;38616;42.140;24.760;2023-04-09T05:06:30;100083.56;;;9.14;66.88
52719;BME280;38616;42.140;24.760;2023-04-09T05:08:56;100068.22;;;9.30;66.45
52719;BME280;38616;42.140;24.760;2023-04-09T05:11:25;100086.66;;;9.28;66.42
52719;BME280;38616;42.140;24.760;2023-04-09T05:13:50;100079.69;;;9.43;66.39
52719;BME280;38616;42.140;24.760;2023-04-09T05:16:16;100076.50;;;9.51;65.75
52719;BME280;38616;42.140;24.760;2023-04-09T05:18:42;100077.56;;;9.45;65.80
52719;BME280;38616;42.140;24.760;2023-04-09T05:21:08;100077.66;;;9.60;65.66
52719;BME280;38616;42.140;24.760;2023-04-09T05:23:33;100084.22;;;9.75;64.81
52719;BME280;38616;42.140;24.760;2023-04-09T05:25:59;100080.72;;;9.80;65.14
52719;BME280;38616;42.140;24.760;2023-04-09T05:28:24;100090.41;;;8.62;67.67
52719;BME280;38616;42.140;24.760;2023-04-09T05:30:50;100088.03;;;8.21;70.24
52719;BME280;38616;42.140;24.760;2023-04-09T05:33:15;100090.47;;;7.61;69.12
52719;BME280;38616;42.140;24.760;2023-04-09T05:35:41;100085.34;;;6.91;72.33
52719;BME280;38616;42.140;24.760;2023-04-09T05:38:06;100090.00;;;6.96;71.64
52719;BME280;38616;42.140;24.760;2023-04-09T05:40:31;100087.00;;;7.83;73.20
52719;BME280;38616;42.140;24.760;2023-04-09T05:42:57;100086.72;;;8.74;70.08
52719;BME280;38616;42.140;24.760;2023-04-09T05:45:22;100086.03;;;9.21;68.29
52719;BME280;38616;42.140;24.760;2023-04-09T05:47:47;100083.75;;;9.40;67.32
52719;BME280;38616;42.140;24.760;2023-04-09T05:50:13;100086.38;;;9.68;66.06
52719;BME280;38616;42.140;24.760;2023-04-09T05:52:38;100083.84;;;10.09;64.67
52719;BME280;38616;42.140;24.760;2023-04-09T05:55:04;100090.66;;;10.17;64.39
52719;BME280;38616;42.140;24.760;2023-04-09T05:57:31;100093.63;;;10.10;64.71
52719;BME280;38616;42.140;24.760;2023-04-09T05:59:57;100104.66;;;10.46;63.52
52719;BME280;38616;42.140;24.760;2023-04-09T06:02:23;100099.50;;;10.50;63.24
52719;BME280;38616;42.140;24.760;2023-04-09T06:04:49;100090.84;;;10.58;63.10
52719;BME280;38616;42.140;24.760;2023-04-09T06:07:14;100093.28;;;10.60;62.60
52719;BME280;38616;42.140;24.760;2023-04-09T06:09:40;100100.91;;;8.86;66.13
52719;BME280;38616;42.140;24.760;2023-04-09T06:12:08;100116.09;;;7.36;69.54
52719;BME280;38616;42.140;24.760;2023-04-09T06:14:33;100109.81;;;7.53;69.71
52719;BME280;38616;42.140;24.760;2023-04-09T06:16:59;100109.41;;;8.67;70.84
52719;BME280;38616;42.140;24.760;2023-04-09T06:19:25;100106.53;;;9.44;68.08
52719;BME280;38616;42.140;24.760;2023-04-09T06:21:51;100099.50;;;9.91;66.22
52719;BME280;38616;42.140;24.760;2023-04-09T06:24:16;100087.34;;;9.99;65.19
52719;BME280;38616;42.140;24.760;2023-04-09T06:26:41;100098.34;;;10.35;64.40
52719;BME280;38616;42.140;24.760;2023-04-09T06:29:07;100100.09;;;10.62;63.13
52719;BME280;38616;42.140;24.760;2023-04-09T06:31:32;100102.53;;;10.59;62.25
52719;BME280;38616;42.140;24.760;2023-04-09T06:33:58;100099.00;;;10.63;62.03
52719;BME280;38616;42.140;24.760;2023-04-09T06:36:26;100103.31;;;10.49;61.88
52719;BME280;38616;42.140;24.760;2023-04-09T06:38:52;100103.41;;;10.11;62.76
52719;BME280;38616;42.140;24.760;2023-04-09T06:41:21;100099.56;;;10.02;63.05
52719;BME280;38616;42.140;24.760;2023-04-09T06:43:46;100103.47;;;10.27;62.82
52719;BME280;38616;42.140;24.760;2023-04-09T06:46:12;100108.03;;;8.65;65.55
52719;BME280;38616;42.140;24.760;2023-04-09T06:48:41;100112.00;;;8.35;68.16
52719;BME280;38616;42.140;24.760;2023-04-09T06:51:09;100107.72;;;8.17;70.71
52719;BME280;38616;42.140;24.760;2023-04-09T06:53:34;100102.53;;;8.87;68.51
52719;BME280;38616;42.140;24.760;2023-04-09T06:56:00;100103.25;;;9.05;68.12
52719;BME280;38616;42.140;24.760;2023-04-09T06:58:26;100105.69;;;9.76;66.35
52719;BME280;38616;42.140;24.760;2023-04-09T07:00:52;100100.81;;;10.37;64.17
52719;BME280;38616;42.140;24.760;2023-04-09T07:03:17;100111.78;;;10.73;62.73
52719;BME280;38616;42.140;24.760;2023-04-09T07:05:43;100114.00;;;10.92;61.69
52719;BME280;38616;42.140;24.760;2023-04-09T07:08:08;100106.94;;;11.17;60.82
52719;BME280;38616;42.140;24.760;2023-04-09T07:10:34;100109.94;;;11.31;60.78
52719;BME280;38616;42.140;24.760;2023-04-09T07:13:00;100109.38;;;11.29;60.58
52719;BME280;38616;42.140;24.760;2023-04-09T07:15:25;100111.56;;;11.47;60.14
52719;BME280;38616;42.140;24.760;2023-04-09T07:17:51;100106.41;;;11.30;59.90
52719;BME280;38616;42.140;24.760;2023-04-09T07:20:16;100113.91;;;10.61;61.20
52719;BME280;38616;42.140;24.760;2023-04-09T07:22:42;100118.56;;;8.89;65.08
52719;BME280;38616;42.140;24.760;2023-04-09T07:25:07;100113.16;;;8.89;66.52
52719;BME280;38616;42.140;24.760;2023-04-09T07:27:34;100103.84;;;9.93;66.58
52719;BME280;38616;42.140;24.760;2023-04-09T07:30:01;100097.94;;;10.80;63.38
52719;BME280;38616;42.140;24.760;2023-04-09T07:32:27;100100.41;;;11.33;61.05
52719;BME280;38616;42.140;24.760;2023-04-09T07:34:54;100105.03;;;11.48;60.28
52719;BME280;38616;42.140;24.760;2023-04-09T07:37:19;100091.38;;;11.69;59.13
52719;BME280;38616;42.140;24.760;2023-04-09T07:39:49;100094.91;;;11.75;58.86
52719;BME280;38616;42.140;24.760;2023-04-09T07:42:15;100098.69;;;12.00;58.38
52719;BME280;38616;42.140;24.760;2023-04-09T07:44:41;100095.91;;;12.15;58.31
52719;BME280;38616;42.140;24.760;2023-04-09T07:47:08;100100.81;;;12.13;57.48
52719;BME280;38616;42.140;24.760;2023-04-09T07:49:35;100099.03;;;11.20;58.89
52719;BME280;38616;42.140;24.760;2023-04-09T07:52:01;100106.91;;;11.53;58.80
52719;BME280;38616;42.140;24.760;2023-04-09T07:54:26;100099.78;;;11.88;58.29
52719;BME280;38616;42.140;24.760;2023-04-09T07:56:52;100096.88;;;10.07;61.74
52719;BME280;38616;42.140;24.760;2023-04-09T07:59:18;100105.88;;;9.65;63.15
52719;BME280;38616;42.140;24.760;2023-04-09T08:01:44;100104.78;;;9.60;65.92
52719;BME280;38616;42.140;24.760;2023-04-09T08:04:09;100101.97;;;10.52;63.02
52719;BME280;38616;42.140;24.760;2023-04-09T08:06:35;100100.69;;;11.16;61.22
52719;BME280;38616;42.140;24.760;2023-04-09T08:09:01;100097.66;;;11.59;60.63
52719;BME280;38616;42.140;24.760;2023-04-09T08:11:26;100101.66;;;12.03;57.66
52719;BME280;38616;42.140;24.760;2023-04-09T08:13:52;100101.44;;;12.55;58.62
52719;BME280;38616;42.140;24.760;2023-04-09T08:16:18;100096.03;;;12.90;56.99
52719;BME280;38616;42.140;24.760;2023-04-09T08:18:43;100105.44;;;12.68;56.52
52719;BME280;38616;42.140;24.760;2023-04-09T08:21:09;100102.56;;;12.49;55.79
52719;BME280;38616;42.140;24.760;2023-04-09T08:23:35;100106.94;;;12.45;56.64
52719;BME280;38616;42.140;24.760;2023-04-09T08:26:00;100107.72;;;12.50;55.30
52719;BME280;38616;42.140;24.760;2023-04-09T08:28:25;100098.97;;;12.53;55.23
52719;BME280;38616;42.140;24.760;2023-04-09T08:30:51;100098.41;;;12.56;54.98
52719;BME280;38616;42.140;24.760;2023-04-09T08:33:16;100097.38;;;12.92;54.09
52719;BME280;38616;42.140;24.760;2023-04-09T08:35:42;100099.50;;;13.00;54.01
52719;BME280;38616;42.140;24.760;2023-04-09T08:38:07;100085.13;;;13.24;53.21
52719;BME280;38616;42.140;24.760;2023-04-09T08:40:36;100092.28;;;13.50;51.98
52719;BME280;38616;42.140;24.760;2023-04-09T08:43:05;100080.22;;;13.56;51.91
52719;BME280;38616;42.140;24.760;2023-04-09T08:45:31;100086.69;;;13.65;51.70
52719;BME280;38616;42.140;24.760;2023-04-09T08:47:56;100079.41;;;13.55;52.20
52719;BME280;38616;42.140;24.760;2023-04-09T08:50:27;100085.00;;;13.69;51.42
52719;BME280;38616;42.140;24.760;2023-04-09T08:52:53;100076.41;;;13.81;51.58
52719;BME280;38616;42.140;24.760;2023-04-09T08:55:21;100083.31;;;13.73;51.62
52719;BME280;38616;42.140;24.760;2023-04-09T08:57:47;100076.75;;;13.74;51.70
52719;BME280;38616;42.140;24.760;2023-04-09T09:00:12;100092.28;;;13.50;51.02
52719;BME280;38616;42.140;24.760;2023-04-09T09:02:38;100086.25;;;13.53;52.08
52719;BME280;38616;42.140;24.760;2023-04-09T09:05:04;100081.56;;;13.58;52.03
52719;BME280;38616;42.140;24.760;2023-04-09T09:07:30;100084.94;;;13.74;51.37
52719;BME280;38616;42.140;24.760;2023-04-09T09:09:57;100082.84;;;13.66;50.77
52719;BME280;38616;42.140;24.760;2023-04-09T09:12:40;100076.75;;;13.15;52.25
52719;BME280;38616;42.140;24.760;2023-04-09T09:15:26;100079.44;;;13.21;53.04
52719;BME280;38616;42.140;24.760;2023-04-09T09:17:56;100071.66;;;13.68;52.43
52719;BME280;38616;42.140;24.760;2023-04-09T09:20:23;100071.28;;;13.74;51.04
52719;BME280;38616;42.140;24.760;2023-04-09T09:22:53;100073.16;;;13.20;51.37
52719;BME280;38616;42.140;24.760;2023-04-09T09:25:19;100071.13;;;13.66;50.86
52719;BME280;38616;42.140;24.760;2023-04-09T09:27:49;100065.13;;;13.88;50.73
52719;BME280;38616;42.140;24.760;2023-04-09T09:30:25;100062.81;;;14.00;50.04
52719;BME280;38616;42.140;24.760;2023-04-09T09:33:10;100054.72;;;14.33;48.71
52719;BME280;38616;42.140;24.760;2023-04-09T09:35:52;100053.69;;;14.29;49.25
52719;BME280;38616;42.140;24.760;2023-04-09T09:38:19;100053.63;;;14.34;48.76
52719;BME280;38616;42.140;24.760;2023-04-09T09:40:45;100043.28;;;14.31;48.93
52719;BME280;38616;42.140;24.760;2023-04-09T09:43:12;100051.91;;;14.39;47.94
52719;BME280;38616;42.140;24.760;2023-04-09T09:45:37;100048.22;;;14.29;47.75
52719;BME280;38616;42.140;24.760;2023-04-09T09:48:04;100043.13;;;14.23;47.79
52719;BME280;38616;42.140;24.760;2023-04-09T09:50:30;100041.06;;;14.33;48.08
52719;BME280;38616;42.140;24.760;2023-04-09T09:53:02;100048.38;;;14.38;47.46
52719;BME280;38616;42.140;24.760;2023-04-09T09:55:33;100040.59;;;14.26;48.09
52719;BME280;38616;42.140;24.760;2023-04-09T09:58:11;100038.19;;;14.44;47.50
52719;BME280;38616;42.140;24.760;2023-04-09T10:00:39;100037.00;;;14.50;47.14
52719;BME280;38616;42.140;24.760;2023-04-09T10:03:18;100043.50;;;14.54;47.16
52719;BME280;38616;42.140;24.760;2023-04-09T10:05:44;100034.56;;;14.68;47.43
52719;BME280;38616;42.140;24.760;2023-04-09T10:08:11;100026.81;;;14.75;47.27
52719;BME280;38616;42.140;24.760;2023-04-09T10:10:38;100027.34;;;14.77;47.42
52719;BME280;38616;42.140;24.760;2023-04-09T10:13:08;100028.13;;;14.77;45.46
52719;BME280;38616;42.140;24.760;2023-04-09T10:15:38;100028.44;;;14.57;45.57
52719;BME280;38616;42.140;24.760;2023-04-09T10:18:04;100020.13;;;14.62;45.24
52719;BME280;38616;42.140;24.760;2023-04-09T10:20:40;100019.41;;;14.56;45.08
52719;BME280;38616;42.140;24.760;2023-04-09T10:23:08;100021.03;;;14.57;44.33
52719;BME280;38616;42.140;24.760;2023-04-09T10:25:35;100015.75;;;13.60;46.61
52719;BME280;38616;42.140;24.760;2023-04-09T10:28:01;100009.44;;;13.35;47.38
52719;BME280;38616;42.140;24.760;2023-04-09T10:30:34;100007.03;;;13.58;46.67
52719;BME280;38616;42.140;24.760;2023-04-09T10:33:14;100003.44;;;13.87;45.87
52719;BME280;38616;42.140;24.760;2023-04-09T10:35:41;99990.25;;;14.13;45.15
52719;BME280;38616;42.140;24.760;2023-04-09T10:38:08;99994.00;;;14.37;44.94
52719;BME280;38616;42.140;24.760;2023-04-09T10:40:49;99993.56;;;13.42;47.66
52719;BME280;38616;42.140;24.760;2023-04-09T10:43:17;99987.91;;;13.82;47.72
52719;BME280;38616;42.140;24.760;2023-04-09T10:45:44;99984.84;;;14.08;46.67
52719;BME280;38616;42.140;24.760;2023-04-09T10:48:12;99982.03;;;13.94;46.33
52719;BME280;38616;42.140;24.760;2023-04-09T10:50:39;99975.34;;;14.25;45.67
52719;BME280;38616;42.140;24.760;2023-04-09T10:53:06;99974.94;;;14.31;44.16
52719;BME280;38616;42.140;24.760;2023-04-09T10:58:06;99978.06;;;13.62;42.86
52719;BME280;38616;42.140;24.760;2023-04-09T11:00:44;99968.00;;;14.01;40.68
52719;BME280;38616;42.140;24.760;2023-04-09T11:03:20;99961.72;;;13.81;39.54
52719;BME280;38616;42.140;24.760;2023-04-09T11:05:49;99954.88;;;14.22;39.01
52719;BME280;38616;42.140;24.760;2023-04-09T11:08:16;99955.75;;;14.37;39.60
52719;BME280;38616;42.140;24.760;2023-04-09T11:10:43;99947.81;;;14.54;39.39
52719;BME280;38616;42.140;24.760;2023-04-09T11:13:13;99945.59;;;14.56;39.00
52719;BME280;38616;42.140;24.760;2023-04-09T11:15:39;99953.56;;;14.00;39.16
52719;BME280;38616;42.140;24.760;2023-04-09T11:18:05;99948.16;;;13.95;39.88
52719;BME280;38616;42.140;24.760;2023-04-09T11:20:34;99940.03;;;14.09;39.30
52719;BME280;38616;42.140;24.760;2023-04-09T11:23:00;99947.84;;;14.16;39.37
52719;BME280;38616;42.140;24.760;2023-04-09T11:25:30;99933.88;;;13.60;37.42
52719;BME280;38616;42.140;24.760;2023-04-09T11:27:56;99931.53;;;13.72;37.54
52719;BME280;38616;42.140;24.760;2023-04-09T11:30:24;99937.38;;;13.85;38.38
52719;BME280;38616;42.140;24.760;2023-04-09T11:32:50;99919.69;;;14.01;37.32
52719;BME280;38616;42.140;24.760;2023-04-09T11:35:17;99913.59;;;13.66;37.36
52719;BME280;38616;42.140;24.760;2023-04-09T11:37:44;99917.03;;;13.53;39.10
52719;BME280;38616;42.140;24.760;2023-04-09T11:40:20;99914.47;;;13.62;38.80
52719;BME280;38616;42.140;24.760;2023-04-09T11:42:48;99907.31;;;14.23;38.52
52719;BME280;38616;42.140;24.760;2023-04-09T11:45:15;99907.16;;;14.33;37.52
52719;BME280;38616;42.140;24.760;2023-04-09T11:47:42;99902.03;;;14.13;36.66
52719;BME280;38616;42.140;24.760;2023-04-09T11:50:09;99895.91;;;13.83;37.35
52719;BME280;38616;42.140;24.760;2023-04-09T11:52:35;99889.31;;;14.03;36.32
52719;BME280;38616;42.140;24.760;2023-04-09T11:55:01;99888.38;;;14.13;37.15
52719;BME280;38616;42.140;24.760;2023-04-09T11:57:44;99883.06;;;14.02;38.19
52719;BME280;38616;42.140;24.760;2023-04-09T12:00:14;99884.00;;;14.12;38.96
52719;BME280;38616;42.140;24.760;2023-04-09T12:02:45;99877.34;;;14.51;38.82
52719;BME280;38616;42.140;24.760;2023-04-09T12:05:20;99877.53;;;14.74;37.78
52719;BME280;38616;42.140;24.760;2023-04-09T12:07:46;99870.06;;;14.94;37.13
52719;BME280;38616;42.140;24.760;2023-04-09T12:10:11;99871.97;;;15.07;35.60
52719;BME280;38616;42.140;24.760;2023-04-09T12:12:44;99878.38;;;14.55;36.36
52719;BME280;38616;42.140;24.760;2023-04-09T12:17:42;99863.91;;;14.69;36.74
52719;BME280;38616;42.140;24.760;2023-04-09T12:20:10;99857.91;;;15.00;35.71
52719;BME280;38616;42.140;24.760;2023-04-09T12:22:36;99860.69;;;14.67;36.06
52719;BME280;38616;42.140;24.760;2023-04-09T12:25:05;99858.63;;;14.91;36.17
52719;BME280;38616;42.140;24.760;2023-04-09T12:27:31;99854.25;;;13.53;39.01
52719;BME280;38616;42.140;24.760;2023-04-09T12:29:56;99859.47;;;14.26;38.05
52719;BME280;38616;42.140;24.760;2023-04-09T12:32:21;99858.28;;;13.12;40.83
52719;BME280;38616;42.140;24.760;2023-04-09T12:34:47;99849.84;;;13.13;41.46
52719;BME280;38616;42.140;24.760;2023-04-09T12:37:14;99847.16;;;14.09;40.14
52719;BME280;38616;42.140;24.760;2023-04-09T12:39:39;99848.72;;;14.48;39.67
52719;BME280;38616;42.140;24.760;2023-04-09T12:42:05;99842.50;;;14.90;38.06
52719;BME280;38616;42.140;24.760;2023-04-09T12:44:30;99844.91;;;15.19;37.84
52719;BME280;38616;42.140;24.760;2023-04-09T12:46:57;99844.28;;;15.50;37.41
52719;BME280;38616;42.140;24.760;2023-04-09T12:49:22;99839.69;;;15.46;37.33
52719;BME280;38616;42.140;24.760;2023-04-09T12:51:48;99841.03;;;15.48;37.66
52719;BME280;38616;42.140;24.760;2023-04-09T12:54:13;99836.34;;;15.63;37.57
52719;BME280;38616;42.140;24.760;2023-04-09T12:56:39;99837.59;;;15.43;37.89
52719;BME280;38616;42.140;24.760;2023-04-09T12:59:05;99831.88;;;15.53;37.63
52719;BME280;38616;42.140;24.760;2023-04-09T13:01:31;99825.16;;;15.22;38.52